sensor_id;sensor_type;location;lat;lon;timestamp;temperature;humidity
13673;DHT22;6909;52.202;9.876;2024-01-30T00:02:25;6.70;99.90
13673;DHT22;6909;52.202;9.876;2024-01-30T00:04:52;6.70;99.90
13673;DHT22;6909;52.202;9.876;2024-01-30T00:07:20;6.70;99.90
13673;DHT22;6909;52.202;9.876;2024-01-30T00:09:46;6.60;99.90
13673;DHT22;6909;52.202;9.876;2024-01-30T00:12:13;6.60;99.90
13673;DHT22;6909;52.202;9.876;2024-01-30T00:14:41;6.50;99.90
13673;DHT22;6909;52.202;9.876;2024-01-30T00:17:08;6.40;99.90
13673;DHT22;6909;52.202;9.876;2024-01-30T00:19:35;6.30;99.90
13673;DHT22;6909;52.202;9.876;2024-01-30T00:22:02;6.30;99.90
13673;DHT22;6909;52.202;9.876;2024-01-30T00:24:30;6.20;99.90
13673;DHT22;6909;52.202;9.876;2024-01-30T00:26:56;6.20;99.90
13673;DHT22;6909;52.202;9.876;2024-01-30T00:29:23;6.30;99.90
13673;DHT22;6909;52.202;9.876;2024-01-30T00:31:51;6.20;99.90
13673;DHT22;6909;52.202;9.876;2024-01-30T00:34:18;6.10;99.90
13673;DHT22;6909;52.202;9.876;2024-01-30T00:36:44;6.00;99.90
13673;DHT22;6909;52.202;9.876;2024-01-30T00:39:11;5.90;99.90
13673;DHT22;6909;52.202;9.876;2024-01-30T00:41:39;5.90;99.90
13673;DHT22;6909;52.202;9.876;2024-01-30T00:44:06;6.00;99.90
13673;DHT22;6909;52.202;9.876;2024-01-30T00:46:32;6.00;99.90
13673;DHT22;6909;52.202;9.876;2024-01-30T00:48:59;6.00;99.90
13673;DHT22;6909;52.202;9.876;2024-01-30T00:51:25;5.90;99.90
13673;DHT22;6909;52.202;9.876;2024-01-30T00:53:54;5.90;99.90
13673;DHT22;6909;52.202;9.876;2024-01-30T00:56:21;5.90;99.90
13673;DHT22;6909;52.202;9.876;2024-01-30T00:58:48;5.80;99.90
13673;DHT22;6909;52.202;9.876;2024-01-30T01:01:15;5.80;99.90
13673;DHT22;6909;52.202;9.876;2024-01-30T01:03:42;5.70;99.90
13673;DHT22;6909;52.202;9.876;2024-01-30T01:06:09;5.80;99.90
13673;DHT22;6909;52.202;9.876;2024-01-30T01:08:35;5.60;99.90
13673;DHT22;6909;52.202;9.876;2024-01-30T01:11:02;5.70;99.90
13673;DHT22;6909;52.202;9.876;2024-01-30T01:13:29;5.70;99.90
13673;DHT22;6909;52.202;9.876;2024-01-30T01:15:57;5.80;99.90
13673;DHT22;6909;52.202;9.876;2024-01-30T01:18:23;5.90;99.90
13673;DHT22;6909;52.202;9.876;2024-01-30T01:20:50;6.00;99.90
13673;DHT22;6909;52.202;9.876;2024-01-30T01:23:17;6.10;99.90
13673;DHT22;6909;52.202;9.876;2024-01-30T01:25:43;6.10;99.90
13673;DHT22;6909;52.202;9.876;2024-01-30T01:28:10;6.00;99.90
13673;DHT22;6909;52.202;9.876;2024-01-30T01:30:36;6.00;99.90
13673;DHT22;6909;52.202;9.876;2024-01-30T01:33:04;5.90;99.90
13673;DHT22;6909;52.202;9.876;2024-01-30T01:35:32;5.80;99.90
13673;DHT22;6909;52.202;9.876;2024-01-30T01:37:59;5.70;99.90
13673;DHT22;6909;52.202;9.876;2024-01-30T01:40:27;5.60;99.90
13673;DHT22;6909;52.202;9.876;2024-01-30T01:42:55;5.60;99.90
13673;DHT22;6909;52.202;9.876;2024-01-30T01:45:22;5.40;99.90
13673;DHT22;6909;52.202;9.876;2024-01-30T01:47:50;5.30;99.90
13673;DHT22;6909;52.202;9.876;2024-01-30T01:50:20;5.20;99.90
13673;DHT22;6909;52.202;9.876;2024-01-30T01:52:48;5.10;99.90
13673;DHT22;6909;52.202;9.876;2024-01-30T01:55:15;5.00;99.90
13673;DHT22;6909;52.202;9.876;2024-01-30T01:57:43;5.00;99.90
13673;DHT22;6909;52.202;9.876;2024-01-30T02:00:10;4.90;99.90
13673;DHT22;6909;52.202;9.876;2024-01-30T02:02:39;5.00;99.90
13673;DHT22;6909;52.202;9.876;2024-01-30T02:05:06;5.10;99.90
13673;DHT22;6909;52.202;9.876;2024-01-30T02:07:34;5.30;99.90
13673;DHT22;6909;52.202;9.876;2024-01-30T02:10:00;5.40;99.90
13673;DHT22;6909;52.202;9.876;2024-01-30T02:12:29;5.40;99.90
13673;DHT22;6909;52.202;9.876;2024-01-30T02:14:56;5.00;99.90
13673;DHT22;6909;52.202;9.876;2024-01-30T02:17:24;4.90;99.90
13673;DHT22;6909;52.202;9.876;2024-01-30T02:19:51;4.80;99.90
13673;DHT22;6909;52.202;9.876;2024-01-30T02:22:19;4.80;99.90
13673;DHT22;6909;52.202;9.876;2024-01-30T02:24:46;4.70;99.90
13673;DHT22;6909;52.202;9.876;2024-01-30T02:27:15;4.70;99.90
13673;DHT22;6909;52.202;9.876;2024-01-30T02:29:41;4.60;99.90
13673;DHT22;6909;52.202;9.876;2024-01-30T02:32:07;4.50;99.90
13673;DHT22;6909;52.202;9.876;2024-01-30T02:34:34;4.80;99.90
13673;DHT22;6909;52.202;9.876;2024-01-30T02:37:01;5.10;99.90
13673;DHT22;6909;52.202;9.876;2024-01-30T02:39:29;5.30;99.90
13673;DHT22;6909;52.202;9.876;2024-01-30T02:41:55;5.60;99.90
13673;DHT22;6909;52.202;9.876;2024-01-30T02:44:22;5.90;99.90
13673;DHT22;6909;52.202;9.876;2024-01-30T02:46:49;5.90;99.90
13673;DHT22;6909;52.202;9.876;2024-01-30T02:49:15;5.90;99.90
13673;DHT22;6909;52.202;9.876;2024-01-30T02:51:42;5.90;99.90
13673;DHT22;6909;52.202;9.876;2024-01-30T02:54:09;6.00;99.90
13673;DHT22;6909;52.202;9.876;2024-01-30T02:56:36;6.00;99.90
13673;DHT22;6909;52.202;9.876;2024-01-30T02:59:03;6.20;99.90
13673;DHT22;6909;52.202;9.876;2024-01-30T03:01:30;6.20;99.90
13673;DHT22;6909;52.202;9.876;2024-01-30T03:03:57;6.30;99.90
13673;DHT22;6909;52.202;9.876;2024-01-30T03:06:26;6.40;99.90
13673;DHT22;6909;52.202;9.876;2024-01-30T03:08:53;6.40;99.90
13673;DHT22;6909;52.202;9.876;2024-01-30T03:11:20;6.40;99.90
13673;DHT22;6909;52.202;9.876;2024-01-30T03:13:48;6.40;99.90
13673;DHT22;6909;52.202;9.876;2024-01-30T03:16:14;6.40;99.90
13673;DHT22;6909;52.202;9.876;2024-01-30T03:18:41;6.40;99.90
13673;DHT22;6909;52.202;9.876;2024-01-30T03:21:07;6.30;99.90
13673;DHT22;6909;52.202;9.876;2024-01-30T03:23:34;6.30;99.90
13673;DHT22;6909;52.202;9.876;2024-01-30T03:26:01;6.10;99.90
13673;DHT22;6909;52.202;9.876;2024-01-30T03:28:29;6.00;99.90
13673;DHT22;6909;52.202;9.876;2024-01-30T03:30:57;6.00;99.90
13673;DHT22;6909;52.202;9.876;2024-01-30T03:33:24;5.70;99.90
13673;DHT22;6909;52.202;9.876;2024-01-30T03:35:51;5.60;99.90
13673;DHT22;6909;52.202;9.876;2024-01-30T03:38:17;5.60;99.90
13673;DHT22;6909;52.202;9.876;2024-01-30T03:40:44;5.50;99.90
13673;DHT22;6909;52.202;9.876;2024-01-30T03:43:11;5.40;99.90
13673;DHT22;6909;52.202;9.876;2024-01-30T03:45:37;5.30;99.90
13673;DHT22;6909;52.202;9.876;2024-01-30T03:48:06;5.30;99.90
13673;DHT22;6909;52.202;9.876;2024-01-30T03:50:33;5.30;99.90
13673;DHT22;6909;52.202;9.876;2024-01-30T03:53:00;5.40;99.90
13673;DHT22;6909;52.202;9.876;2024-01-30T03:55:26;5.40;99.90
13673;DHT22;6909;52.202;9.876;2024-01-30T03:57:53;5.50;99.90
13673;DHT22;6909;52.202;9.876;2024-01-30T04:00:22;5.50;99.90
13673;DHT22;6909;52.202;9.876;2024-01-30T04:02:49;5.40;99.90
13673;DHT22;6909;52.202;9.876;2024-01-30T04:05:17;5.30;99.90
13673;DHT22;6909;52.202;9.876;2024-01-30T04:07:44;5.30;99.90
13673;DHT22;6909;52.202;9.876;2024-01-30T04:10:11;5.40;99.90
13673;DHT22;6909;52.202;9.876;2024-01-30T04:12:37;5.60;99.90
13673;DHT22;6909;52.202;9.876;2024-01-30T04:15:04;5.80;99.90
13673;DHT22;6909;52.202;9.876;2024-01-30T04:17:31;5.90;99.90
13673;DHT22;6909;52.202;9.876;2024-01-30T04:19:58;6.00;99.90
13673;DHT22;6909;52.202;9.876;2024-01-30T04:22:26;6.00;99.90
13673;DHT22;6909;52.202;9.876;2024-01-30T04:24:52;6.00;99.90
13673;DHT22;6909;52.202;9.876;2024-01-30T04:27:19;6.00;99.90
13673;DHT22;6909;52.202;9.876;2024-01-30T04:29:45;5.90;99.90
13673;DHT22;6909;52.202;9.876;2024-01-30T04:32:12;5.50;99.90
13673;DHT22;6909;52.202;9.876;2024-01-30T04:34:39;5.40;99.90
13673;DHT22;6909;52.202;9.876;2024-01-30T04:37:05;5.30;99.90
13673;DHT22;6909;52.202;9.876;2024-01-30T04:39:34;5.20;99.90
13673;DHT22;6909;52.202;9.876;2024-01-30T04:42:00;5.20;99.90
13673;DHT22;6909;52.202;9.876;2024-01-30T04:44:27;5.20;99.90
13673;DHT22;6909;52.202;9.876;2024-01-30T04:46:54;5.20;99.90
13673;DHT22;6909;52.202;9.876;2024-01-30T04:49:24;5.10;99.90
13673;DHT22;6909;52.202;9.876;2024-01-30T04:51:51;5.00;99.90
13673;DHT22;6909;52.202;9.876;2024-01-30T04:54:17;5.00;99.90
13673;DHT22;6909;52.202;9.876;2024-01-30T04:56:45;5.00;99.90
13673;DHT22;6909;52.202;9.876;2024-01-30T04:59:12;5.10;99.90
13673;DHT22;6909;52.202;9.876;2024-01-30T05:01:38;5.20;99.90
13673;DHT22;6909;52.202;9.876;2024-01-30T05:04:07;5.40;99.90
13673;DHT22;6909;52.202;9.876;2024-01-30T05:06:34;5.50;99.90
13673;DHT22;6909;52.202;9.876;2024-01-30T05:09:00;5.40;99.90
13673;DHT22;6909;52.202;9.876;2024-01-30T05:11:29;5.10;99.90
13673;DHT22;6909;52.202;9.876;2024-01-30T05:13:57;4.90;99.90
13673;DHT22;6909;52.202;9.876;2024-01-30T05:16:24;4.80;99.90
13673;DHT22;6909;52.202;9.876;2024-01-30T05:18:51;4.80;99.90
13673;DHT22;6909;52.202;9.876;2024-01-30T05:21:18;4.70;99.90
13673;DHT22;6909;52.202;9.876;2024-01-30T05:23:45;4.60;99.90
13673;DHT22;6909;52.202;9.876;2024-01-30T05:26:12;4.70;99.90
13673;DHT22;6909;52.202;9.876;2024-01-30T05:28:39;4.80;99.90
13673;DHT22;6909;52.202;9.876;2024-01-30T05:31:07;4.90;99.90
13673;DHT22;6909;52.202;9.876;2024-01-30T05:33:34;5.00;99.90
13673;DHT22;6909;52.202;9.876;2024-01-30T05:36:01;5.00;99.90
13673;DHT22;6909;52.202;9.876;2024-01-30T05:38:27;5.00;99.90
13673;DHT22;6909;52.202;9.876;2024-01-30T05:40:54;4.80;99.90
13673;DHT22;6909;52.202;9.876;2024-01-30T05:43:21;4.80;99.90
13673;DHT22;6909;52.202;9.876;2024-01-30T05:45:48;4.70;99.90
13673;DHT22;6909;52.202;9.876;2024-01-30T05:48:16;4.80;99.90
13673;DHT22;6909;52.202;9.876;2024-01-30T05:50:42;4.90;99.90
13673;DHT22;6909;52.202;9.876;2024-01-30T05:53:10;4.90;99.90
13673;DHT22;6909;52.202;9.876;2024-01-30T05:55:37;5.00;99.90
13673;DHT22;6909;52.202;9.876;2024-01-30T05:58:04;5.00;99.90
13673;DHT22;6909;52.202;9.876;2024-01-30T06:00:30;5.10;99.90
13673;DHT22;6909;52.202;9.876;2024-01-30T06:02:57;5.00;99.90
13673;DHT22;6909;52.202;9.876;2024-01-30T06:05:25;5.00;99.90
13673;DHT22;6909;52.202;9.876;2024-01-30T06:07:51;4.90;99.90
13673;DHT22;6909;52.202;9.876;2024-01-30T06:10:18;5.10;99.90
13673;DHT22;6909;52.202;9.876;2024-01-30T06:12:45;5.40;99.90
13673;DHT22;6909;52.202;9.876;2024-01-30T06:15:12;5.50;99.90
13673;DHT22;6909;52.202;9.876;2024-01-30T06:17:39;5.50;99.90
13673;DHT22;6909;52.202;9.876;2024-01-30T06:20:06;5.90;99.90
13673;DHT22;6909;52.202;9.876;2024-01-30T06:22:34;6.00;99.90
13673;DHT22;6909;52.202;9.876;2024-01-30T06:25:01;6.00;99.90
13673;DHT22;6909;52.202;9.876;2024-01-30T06:27:28;6.10;99.90
13673;DHT22;6909;52.202;9.876;2024-01-30T06:29:54;6.00;99.90
13673;DHT22;6909;52.202;9.876;2024-01-30T06:32:21;5.90;99.90
13673;DHT22;6909;52.202;9.876;2024-01-30T06:34:48;5.80;99.90
13673;DHT22;6909;52.202;9.876;2024-01-30T06:37:14;5.70;99.90
13673;DHT22;6909;52.202;9.876;2024-01-30T06:39:42;5.80;99.90
13673;DHT22;6909;52.202;9.876;2024-01-30T06:42:09;5.90;99.90
13673;DHT22;6909;52.202;9.876;2024-01-30T06:44:36;5.90;99.90
13673;DHT22;6909;52.202;9.876;2024-01-30T06:47:03;6.00;99.90
13673;DHT22;6909;52.202;9.876;2024-01-30T06:49:30;5.90;99.90
13673;DHT22;6909;52.202;9.876;2024-01-30T06:51:57;6.00;99.90
13673;DHT22;6909;52.202;9.876;2024-01-30T06:54:23;6.00;99.90
13673;DHT22;6909;52.202;9.876;2024-01-30T06:56:51;5.90;99.90
13673;DHT22;6909;52.202;9.876;2024-01-30T06:59:18;5.90;99.90
13673;DHT22;6909;52.202;9.876;2024-01-30T07:01:45;5.90;99.90
13673;DHT22;6909;52.202;9.876;2024-01-30T07:04:11;5.60;99.90
13673;DHT22;6909;52.202;9.876;2024-01-30T07:06:38;5.40;99.90
13673;DHT22;6909;52.202;9.876;2024-01-30T07:09:05;5.30;99.90
13673;DHT22;6909;52.202;9.876;2024-01-30T07:11:31;5.40;99.90
13673;DHT22;6909;52.202;9.876;2024-01-30T07:13:59;5.30;99.90
13673;DHT22;6909;52.202;9.876;2024-01-30T07:16:29;5.20;99.90
13673;DHT22;6909;52.202;9.876;2024-01-30T07:18:55;5.20;99.90
13673;DHT22;6909;52.202;9.876;2024-01-30T07:21:22;5.10;99.90
13673;DHT22;6909;52.202;9.876;2024-01-30T07:23:53;5.10;99.90
13673;DHT22;6909;52.202;9.876;2024-01-30T07:26:20;5.10;99.90
13673;DHT22;6909;52.202;9.876;2024-01-30T07:28:46;5.10;99.90
13673;DHT22;6909;52.202;9.876;2024-01-30T07:31:14;5.10;99.90
13673;DHT22;6909;52.202;9.876;2024-01-30T07:33:41;5.40;99.90
13673;DHT22;6909;52.202;9.876;2024-01-30T07:36:08;5.80;99.90
13673;DHT22;6909;52.202;9.876;2024-01-30T07:38:35;6.20;99.90
13673;DHT22;6909;52.202;9.876;2024-01-30T07:41:02;6.40;99.90
13673;DHT22;6909;52.202;9.876;2024-01-30T07:43:29;6.30;99.90
13673;DHT22;6909;52.202;9.876;2024-01-30T07:45:56;6.40;99.90
13673;DHT22;6909;52.202;9.876;2024-01-30T07:48:24;6.60;99.90
13673;DHT22;6909;52.202;9.876;2024-01-30T07:50:50;6.50;99.90
13673;DHT22;6909;52.202;9.876;2024-01-30T07:53:17;6.50;99.90
13673;DHT22;6909;52.202;9.876;2024-01-30T07:55:44;6.30;99.90
13673;DHT22;6909;52.202;9.876;2024-01-30T07:58:12;6.20;99.90
13673;DHT22;6909;52.202;9.876;2024-01-30T08:00:38;6.10;99.90
13673;DHT22;6909;52.202;9.876;2024-01-30T08:03:05;6.00;99.90
13673;DHT22;6909;52.202;9.876;2024-01-30T08:05:33;6.00;99.90
13673;DHT22;6909;52.202;9.876;2024-01-30T08:08:00;6.00;99.90
13673;DHT22;6909;52.202;9.876;2024-01-30T08:10:26;5.70;99.90
13673;DHT22;6909;52.202;9.876;2024-01-30T08:12:53;5.70;99.90
13673;DHT22;6909;52.202;9.876;2024-01-30T08:15:19;5.80;99.90
13673;DHT22;6909;52.202;9.876;2024-01-30T08:17:46;5.90;99.90
13673;DHT22;6909;52.202;9.876;2024-01-30T08:20:13;6.00;99.90
13673;DHT22;6909;52.202;9.876;2024-01-30T08:22:41;6.20;99.90
13673;DHT22;6909;52.202;9.876;2024-01-30T08:25:08;6.20;99.90
13673;DHT22;6909;52.202;9.876;2024-01-30T08:27:35;6.20;99.90
13673;DHT22;6909;52.202;9.876;2024-01-30T08:30:04;6.00;99.90
13673;DHT22;6909;52.202;9.876;2024-01-30T08:32:31;6.50;99.90
13673;DHT22;6909;52.202;9.876;2024-01-30T08:34:58;6.50;99.90
13673;DHT22;6909;52.202;9.876;2024-01-30T08:37:25;6.80;99.90
13673;DHT22;6909;52.202;9.876;2024-01-30T08:39:53;6.90;99.90
13673;DHT22;6909;52.202;9.876;2024-01-30T08:42:19;7.10;99.90
13673;DHT22;6909;52.202;9.876;2024-01-30T08:44:47;7.30;99.90
13673;DHT22;6909;52.202;9.876;2024-01-30T08:47:14;7.50;99.90
13673;DHT22;6909;52.202;9.876;2024-01-30T08:49:42;7.50;99.90
13673;DHT22;6909;52.202;9.876;2024-01-30T08:52:09;7.60;99.90
13673;DHT22;6909;52.202;9.876;2024-01-30T08:54:36;7.60;99.90
13673;DHT22;6909;52.202;9.876;2024-01-30T08:57:04;7.70;99.90
13673;DHT22;6909;52.202;9.876;2024-01-30T08:59:31;7.70;99.90
13673;DHT22;6909;52.202;9.876;2024-01-30T09:01:57;7.70;99.90
13673;DHT22;6909;52.202;9.876;2024-01-30T09:04:24;7.80;99.90
13673;DHT22;6909;52.202;9.876;2024-01-30T09:06:51;7.80;99.90
13673;DHT22;6909;52.202;9.876;2024-01-30T09:09:18;7.90;99.90
13673;DHT22;6909;52.202;9.876;2024-01-30T09:11:44;8.10;99.90
13673;DHT22;6909;52.202;9.876;2024-01-30T09:14:12;8.20;99.90
13673;DHT22;6909;52.202;9.876;2024-01-30T09:16:39;8.30;99.90
13673;DHT22;6909;52.202;9.876;2024-01-30T09:19:06;8.40;99.90
13673;DHT22;6909;52.202;9.876;2024-01-30T09:21:33;8.50;99.90
13673;DHT22;6909;52.202;9.876;2024-01-30T09:24:02;8.60;99.90
13673;DHT22;6909;52.202;9.876;2024-01-30T09:26:28;8.60;99.90
13673;DHT22;6909;52.202;9.876;2024-01-30T09:28:55;8.60;99.90
13673;DHT22;6909;52.202;9.876;2024-01-30T09:31:23;8.50;99.90
13673;DHT22;6909;52.202;9.876;2024-01-30T09:33:49;8.50;99.90
13673;DHT22;6909;52.202;9.876;2024-01-30T09:36:19;8.40;99.90
13673;DHT22;6909;52.202;9.876;2024-01-30T09:38:46;8.60;99.90
13673;DHT22;6909;52.202;9.876;2024-01-30T09:41:13;8.70;99.90
13673;DHT22;6909;52.202;9.876;2024-01-30T09:43:39;8.80;99.90
13673;DHT22;6909;52.202;9.876;2024-01-30T09:46:10;8.80;99.90
13673;DHT22;6909;52.202;9.876;2024-01-30T09:48:40;8.80;99.90
13673;DHT22;6909;52.202;9.876;2024-01-30T09:51:08;8.80;99.90
13673;DHT22;6909;52.202;9.876;2024-01-30T09:53:36;8.90;99.90
13673;DHT22;6909;52.202;9.876;2024-01-30T09:56:04;9.00;99.90
13673;DHT22;6909;52.202;9.876;2024-01-30T09:58:31;9.00;99.90
13673;DHT22;6909;52.202;9.876;2024-01-30T10:00:58;9.00;99.90
13673;DHT22;6909;52.202;9.876;2024-01-30T10:03:25;9.10;99.90
13673;DHT22;6909;52.202;9.876;2024-01-30T10:05:55;9.10;99.90
13673;DHT22;6909;52.202;9.876;2024-01-30T10:08:22;9.20;99.90
13673;DHT22;6909;52.202;9.876;2024-01-30T10:10:49;9.30;99.90
13673;DHT22;6909;52.202;9.876;2024-01-30T10:13:16;9.30;99.90
13673;DHT22;6909;52.202;9.876;2024-01-30T10:15:43;9.30;99.90
13673;DHT22;6909;52.202;9.876;2024-01-30T10:18:10;9.40;99.90
13673;DHT22;6909;52.202;9.876;2024-01-30T10:20:37;9.40;99.90
13673;DHT22;6909;52.202;9.876;2024-01-30T10:23:06;9.40;99.90
13673;DHT22;6909;52.202;9.876;2024-01-30T10:25:33;9.40;99.90
13673;DHT22;6909;52.202;9.876;2024-01-30T10:27:59;9.70;99.90
13673;DHT22;6909;52.202;9.876;2024-01-30T10:30:27;9.90;99.90
13673;DHT22;6909;52.202;9.876;2024-01-30T10:32:54;10.00;99.90
13673;DHT22;6909;52.202;9.876;2024-01-30T10:35:21;10.10;99.90
13673;DHT22;6909;52.202;9.876;2024-01-30T10:37:48;10.20;99.90
13673;DHT22;6909;52.202;9.876;2024-01-30T10:40:16;10.10;99.90
13673;DHT22;6909;52.202;9.876;2024-01-30T10:42:43;10.00;99.90
13673;DHT22;6909;52.202;9.876;2024-01-30T10:45:11;10.00;99.90
13673;DHT22;6909;52.202;9.876;2024-01-30T10:47:40;10.00;59.50
13673;DHT22;6909;52.202;9.876;2024-01-30T10:50:08;10.00;99.90
13673;DHT22;6909;52.202;9.876;2024-01-30T10:52:36;10.00;99.90
13673;DHT22;6909;52.202;9.876;2024-01-30T10:55:04;10.10;99.90
13673;DHT22;6909;52.202;9.876;2024-01-30T10:57:34;10.30;99.90
13673;DHT22;6909;52.202;9.876;2024-01-30T11:00:02;10.30;99.90
13673;DHT22;6909;52.202;9.876;2024-01-30T11:02:31;10.50;99.90
13673;DHT22;6909;52.202;9.876;2024-01-30T11:04:59;10.50;1.00
13673;DHT22;6909;52.202;9.876;2024-01-30T11:07:27;10.50;1.00
13673;DHT22;6909;52.202;9.876;2024-01-30T11:10:00;10.60;99.90
13673;DHT22;6909;52.202;9.876;2024-01-30T11:12:28;10.60;99.90
13673;DHT22;6909;52.202;9.876;2024-01-30T11:15:06;10.40;99.90
13673;DHT22;6909;52.202;9.876;2024-01-30T11:17:44;10.40;1.00
13673;DHT22;6909;52.202;9.876;2024-01-30T11:20:12;10.50;99.90
13673;DHT22;6909;52.202;9.876;2024-01-30T11:22:41;10.50;1.00
13673;DHT22;6909;52.202;9.876;2024-01-30T11:25:11;10.60;99.90
13673;DHT22;6909;52.202;9.876;2024-01-30T11:27:38;10.60;99.90
13673;DHT22;6909;52.202;9.876;2024-01-30T11:30:08;10.60;99.90
13673;DHT22;6909;52.202;9.876;2024-01-30T11:32:35;10.60;90.00
13673;DHT22;6909;52.202;9.876;2024-01-30T11:35:03;10.70;93.70
13673;DHT22;6909;52.202;9.876;2024-01-30T11:37:31;10.90;3.30
13673;DHT22;6909;52.202;9.876;2024-01-30T11:39:58;10.90;99.90
13673;DHT22;6909;52.202;9.876;2024-01-30T11:42:26;11.10;99.90
13673;DHT22;6909;52.202;9.876;2024-01-30T11:44:53;11.00;99.90
13673;DHT22;6909;52.202;9.876;2024-01-30T11:47:22;11.00;99.90
13673;DHT22;6909;52.202;9.876;2024-01-30T11:49:49;10.80;95.00
13673;DHT22;6909;52.202;9.876;2024-01-30T11:52:16;10.80;99.90
13673;DHT22;6909;52.202;9.876;2024-01-30T11:54:43;10.70;99.90
13673;DHT22;6909;52.202;9.876;2024-01-30T11:57:09;10.60;99.90
13673;DHT22;6909;52.202;9.876;2024-01-30T11:59:36;10.60;1.00
13673;DHT22;6909;52.202;9.876;2024-01-30T12:02:03;10.50;99.90
13673;DHT22;6909;52.202;9.876;2024-01-30T12:04:31;10.50;1.00
13673;DHT22;6909;52.202;9.876;2024-01-30T12:06:58;10.70;99.90
13673;DHT22;6909;52.202;9.876;2024-01-30T12:09:25;10.70;1.00
13673;DHT22;6909;52.202;9.876;2024-01-30T12:11:53;10.70;1.00
13673;DHT22;6909;52.202;9.876;2024-01-30T12:14:19;10.60;1.00
13673;DHT22;6909;52.202;9.876;2024-01-30T12:16:48;10.60;1.00
13673;DHT22;6909;52.202;9.876;2024-01-30T12:19:21;10.50;1.00
13673;DHT22;6909;52.202;9.876;2024-01-30T12:21:53;10.50;1.00
13673;DHT22;6909;52.202;9.876;2024-01-30T12:24:20;10.50;99.90
13673;DHT22;6909;52.202;9.876;2024-01-30T12:26:47;10.70;1.00
13673;DHT22;6909;52.202;9.876;2024-01-30T12:29:14;10.70;1.00
13673;DHT22;6909;52.202;9.876;2024-01-30T12:31:42;10.90;49.80
13673;DHT22;6909;52.202;9.876;2024-01-30T12:34:09;11.10;1.00
13673;DHT22;6909;52.202;9.876;2024-01-30T12:36:36;11.20;1.00
13673;DHT22;6909;52.202;9.876;2024-01-30T12:39:04;11.30;1.00
13673;DHT22;6909;52.202;9.876;2024-01-30T12:41:31;11.40;1.00
13673;DHT22;6909;52.202;9.876;2024-01-30T12:43:57;11.40;1.00
13673;DHT22;6909;52.202;9.876;2024-01-30T12:46:27;11.40;1.00
13673;DHT22;6909;52.202;9.876;2024-01-30T12:48:54;11.40;1.00
13673;DHT22;6909;52.202;9.876;2024-01-30T12:51:20;11.40;99.90
13673;DHT22;6909;52.202;9.876;2024-01-30T12:53:47;11.20;99.90
13673;DHT22;6909;52.202;9.876;2024-01-30T12:56:16;11.20;1.00
13673;DHT22;6909;52.202;9.876;2024-01-30T12:58:42;11.20;1.00
13673;DHT22;6909;52.202;9.876;2024-01-30T13:01:09;11.20;1.00
13673;DHT22;6909;52.202;9.876;2024-01-30T13:03:36;11.20;1.00
13673;DHT22;6909;52.202;9.876;2024-01-30T13:06:03;11.10;1.00
13673;DHT22;6909;52.202;9.876;2024-01-30T13:08:29;11.20;1.00
13673;DHT22;6909;52.202;9.876;2024-01-30T13:10:56;11.30;1.00
13673;DHT22;6909;52.202;9.876;2024-01-30T13:13:24;11.30;1.00
13673;DHT22;6909;52.202;9.876;2024-01-30T13:15:52;11.30;99.90
13673;DHT22;6909;52.202;9.876;2024-01-30T13:18:18;11.30;99.90
13673;DHT22;6909;52.202;9.876;2024-01-30T13:20:46;11.20;99.90
13673;DHT22;6909;52.202;9.876;2024-01-30T13:23:12;11.20;1.00
13673;DHT22;6909;52.202;9.876;2024-01-30T13:25:39;11.20;1.00
13673;DHT22;6909;52.202;9.876;2024-01-30T13:28:05;11.30;1.00
13673;DHT22;6909;52.202;9.876;2024-01-30T13:30:33;11.30;1.00
13673;DHT22;6909;52.202;9.876;2024-01-30T13:33:00;11.30;1.00
13673;DHT22;6909;52.202;9.876;2024-01-30T13:35:28;11.30;1.00
13673;DHT22;6909;52.202;9.876;2024-01-30T13:37:55;11.20;1.00
13673;DHT22;6909;52.202;9.876;2024-01-30T13:40:21;11.20;1.00
13673;DHT22;6909;52.202;9.876;2024-01-30T13:42:48;11.10;1.00
13673;DHT22;6909;52.202;9.876;2024-01-30T13:45:15;11.00;1.00
13673;DHT22;6909;52.202;9.876;2024-01-30T13:47:43;11.00;1.00
13673;DHT22;6909;52.202;9.876;2024-01-30T13:50:09;11.00;1.00
13673;DHT22;6909;52.202;9.876;2024-01-30T13:52:40;10.80;99.90
13673;DHT22;6909;52.202;9.876;2024-01-30T13:55:07;10.70;99.90
13673;DHT22;6909;52.202;9.876;2024-01-30T13:57:34;10.70;99.90
13673;DHT22;6909;52.202;9.876;2024-01-30T14:00:01;10.70;99.90
13673;DHT22;6909;52.202;9.876;2024-01-30T14:02:28;10.70;99.90
13673;DHT22;6909;52.202;9.876;2024-01-30T14:04:56;10.70;99.90
13673;DHT22;6909;52.202;9.876;2024-01-30T14:07:23;10.60;99.90
13673;DHT22;6909;52.202;9.876;2024-01-30T14:09:49;10.50;99.90
13673;DHT22;6909;52.202;9.876;2024-01-30T14:12:16;10.50;1.00
13673;DHT22;6909;52.202;9.876;2024-01-30T14:14:43;10.50;99.90
13673;DHT22;6909;52.202;9.876;2024-01-30T14:17:09;10.50;99.90
13673;DHT22;6909;52.202;9.876;2024-01-30T14:19:36;10.40;99.90
13673;DHT22;6909;52.202;9.876;2024-01-30T14:22:04;10.40;99.90
13673;DHT22;6909;52.202;9.876;2024-01-30T14:24:31;10.30;99.90
13673;DHT22;6909;52.202;9.876;2024-01-30T14:26:58;10.30;99.90
13673;DHT22;6909;52.202;9.876;2024-01-30T14:29:25;10.30;1.00
13673;DHT22;6909;52.202;9.876;2024-01-30T14:31:51;10.20;1.00
13673;DHT22;6909;52.202;9.876;2024-01-30T14:34:20;10.20;1.00
13673;DHT22;6909;52.202;9.876;2024-01-30T14:36:47;10.20;1.00
13673;DHT22;6909;52.202;9.876;2024-01-30T14:39:15;10.20;1.00
13673;DHT22;6909;52.202;9.876;2024-01-30T14:41:41;10.20;1.00
13673;DHT22;6909;52.202;9.876;2024-01-30T14:44:08;10.20;1.00
13673;DHT22;6909;52.202;9.876;2024-01-30T14:46:35;10.30;1.00
13673;DHT22;6909;52.202;9.876;2024-01-30T14:49:02;10.30;1.00
13673;DHT22;6909;52.202;9.876;2024-01-30T14:51:30;10.30;1.00
13673;DHT22;6909;52.202;9.876;2024-01-30T14:53:58;10.30;1.00
13673;DHT22;6909;52.202;9.876;2024-01-30T14:56:26;10.40;5.00
13673;DHT22;6909;52.202;9.876;2024-01-30T14:58:53;10.40;1.00
13673;DHT22;6909;52.202;9.876;2024-01-30T15:01:20;10.50;1.00
13673;DHT22;6909;52.202;9.876;2024-01-30T15:03:47;10.50;1.00
13673;DHT22;6909;52.202;9.876;2024-01-30T15:06:13;10.50;1.00
13673;DHT22;6909;52.202;9.876;2024-01-30T15:08:40;10.50;1.00
13673;DHT22;6909;52.202;9.876;2024-01-30T15:11:07;10.50;1.00
13673;DHT22;6909;52.202;9.876;2024-01-30T15:13:35;10.50;1.00
13673;DHT22;6909;52.202;9.876;2024-01-30T15:16:02;10.50;1.00
13673;DHT22;6909;52.202;9.876;2024-01-30T15:18:31;10.40;1.00
13673;DHT22;6909;52.202;9.876;2024-01-30T15:20:57;10.40;1.00
13673;DHT22;6909;52.202;9.876;2024-01-30T15:23:24;10.40;1.00
13673;DHT22;6909;52.202;9.876;2024-01-30T15:25:51;10.40;1.00
13673;DHT22;6909;52.202;9.876;2024-01-30T15:28:17;10.30;1.00
13673;DHT22;6909;52.202;9.876;2024-01-30T15:30:46;10.20;1.00
13673;DHT22;6909;52.202;9.876;2024-01-30T15:33:12;10.30;1.00
13673;DHT22;6909;52.202;9.876;2024-01-30T15:35:39;10.30;1.00
13673;DHT22;6909;52.202;9.876;2024-01-30T15:38:07;10.20;1.00
13673;DHT22;6909;52.202;9.876;2024-01-30T15:40:34;10.20;1.00
13673;DHT22;6909;52.202;9.876;2024-01-30T15:43:00;10.30;1.00
13673;DHT22;6909;52.202;9.876;2024-01-30T15:45:27;10.30;1.00
13673;DHT22;6909;52.202;9.876;2024-01-30T15:47:55;10.30;1.00
13673;DHT22;6909;52.202;9.876;2024-01-30T15:50:23;10.30;1.00
13673;DHT22;6909;52.202;9.876;2024-01-30T15:52:49;10.10;1.00
13673;DHT22;6909;52.202;9.876;2024-01-30T15:55:16;10.10;1.00
13673;DHT22;6909;52.202;9.876;2024-01-30T15:57:43;10.10;1.00
13673;DHT22;6909;52.202;9.876;2024-01-30T16:00:11;10.10;1.00